createdAt,value
2023-05-02T00:00:35.256Z,1018.5
2023-05-02T00:01:34.704Z,1018.5
2023-05-02T00:02:35.290Z,1018.5
2023-05-02T00:03:34.877Z,1018.4
2023-05-02T00:07:35.104Z,1018.5
2023-05-02T00:08:35.463Z,1018.4
2023-05-02T00:09:35.175Z,1018.4
2023-05-02T00:10:34.738Z,1018.4
2023-05-02T00:11:35.918Z,1018.4
2023-05-02T00:14:35.880Z,1018.4
2023-05-02T00:15:34.903Z,1018.3
2023-05-02T00:16:35.026Z,1018.5
2023-05-02T00:17:35.195Z,1018.4
2023-05-02T00:19:34.692Z,1018.4
2023-05-02T00:22:34.839Z,1018.4
2023-05-02T00:23:34.682Z,1018.4
2023-05-02T00:24:34.873Z,1018.3
2023-05-02T00:25:34.559Z,1018.4
2023-05-02T00:26:35.226Z,1018.4
2023-05-02T00:27:35.645Z,1018.4
2023-05-02T00:34:35.183Z,1018.5
2023-05-02T00:35:34.548Z,1018.4
2023-05-02T00:36:34.721Z,1018.3
2023-05-02T00:37:34.817Z,1018.4
2023-05-02T00:38:34.399Z,1018.3
2023-05-02T00:39:36.328Z,1018.3
2023-05-02T00:40:35.660Z,1018.3
2023-05-02T00:41:34.806Z,1018.4
2023-05-02T00:42:35.391Z,1018.3
2023-05-02T00:43:37.289Z,1018.3
2023-05-02T00:47:34.849Z,1018.4
2023-05-02T00:48:34.630Z,1018.5
2023-05-02T00:50:34.740Z,1018.5
2023-05-02T00:51:35.128Z,1018.4
2023-05-02T00:52:34.343Z,1018.5
2023-05-02T00:53:34.341Z,1018.5
2023-05-02T00:54:53.388Z,1018.4
2023-05-02T00:55:34.508Z,1018.5
2023-05-02T00:56:42.331Z,1018.5
2023-05-02T00:57:36.044Z,1018.4
2023-05-02T00:58:36.018Z,1018.4
2023-05-02T00:59:35.947Z,1018.3
2023-05-02T01:00:36.898Z,1018.4
2023-05-02T01:01:36.132Z,1018.3
2023-05-02T01:02:37.427Z,1018.3
2023-05-02T01:03:34.947Z,1018.4
2023-05-02T01:04:34.486Z,1018.4
2023-05-02T01:05:34.480Z,1018.4
2023-05-02T01:06:35.001Z,1018.4
2023-05-02T01:07:34.781Z,1018.4
2023-05-02T01:08:34.458Z,1018.3
2023-05-02T01:09:35.089Z,1018.4
2023-05-02T01:10:34.549Z,1018.3
2023-05-02T01:11:35.914Z,1018.3
2023-05-02T01:13:34.886Z,1018.3
2023-05-02T01:14:34.650Z,1018.4
2023-05-02T01:15:35.228Z,1018.4
2023-05-02T01:18:35.375Z,1018.4
2023-05-02T01:19:34.834Z,1018.4
2023-05-02T01:20:34.668Z,1018.3
2023-05-02T01:21:34.316Z,1018.3
2023-05-02T01:22:34.891Z,1018.4
2023-05-02T01:23:35.127Z,1018.4
2023-05-02T01:24:34.697Z,1018.4
2023-05-02T01:25:34.903Z,1018.4
2023-05-02T01:26:35.653Z,1018.5
2023-05-02T01:27:34.585Z,1018.3
2023-05-02T01:28:34.757Z,1018.4
2023-05-02T01:29:36.055Z,1018.4
2023-05-02T01:31:35.238Z,1018.3
2023-05-02T01:39:35.158Z,1018.3
2023-05-02T01:40:35.034Z,1018.3
2023-05-02T01:41:36.052Z,1018.4
2023-05-02T01:42:34.995Z,1018.3
2023-05-02T01:43:42.088Z,1018.3
2023-05-02T01:53:34.691Z,1018.3
2023-05-02T01:54:34.491Z,1018.3
2023-05-02T01:57:34.538Z,1018.2
2023-05-02T01:58:35.407Z,1018.2
2023-05-02T02:05:34.889Z,1018.2
2023-05-02T02:06:34.703Z,1018.3
2023-05-02T02:07:34.494Z,1018.2
2023-05-02T02:08:34.654Z,1018.2
2023-05-02T02:09:34.927Z,1018.2
2023-05-02T02:10:34.674Z,1018.2
2023-05-02T02:11:43.440Z,1018.2
2023-05-02T02:12:34.727Z,1018.2
2023-05-02T02:13:34.773Z,1018.2
2023-05-02T02:16:34.653Z,1018.2
2023-05-02T02:17:34.785Z,1018.2
2023-05-02T02:18:34.825Z,1018.3
2023-05-02T02:19:34.341Z,1018.2
2023-05-02T02:22:35.094Z,1018.2
2023-05-02T02:23:35.331Z,1018.2
2023-05-02T02:24:34.870Z,1018.2
2023-05-02T02:25:55.999Z,1018.2
2023-05-02T02:26:34.462Z,1018.2
2023-05-02T02:27:34.270Z,1018.2
2023-05-02T02:28:34.490Z,1018.2
2023-05-02T02:29:34.761Z,1018.2
2023-05-02T02:30:34.471Z,1018.2
2023-05-02T02:31:35.145Z,1018.2
2023-05-02T02:32:37.769Z,1018.1
2023-05-02T02:33:34.545Z,1018.2
2023-05-02T02:34:34.562Z,1018.2
2023-05-02T02:35:36.902Z,1018.2
2023-05-02T02:36:42.445Z,1018.2
2023-05-02T02:37:34.749Z,1018.2
2023-05-02T02:38:34.738Z,1018.2
2023-05-02T02:39:34.591Z,1018.3
2023-05-02T02:40:34.766Z,1018.3
2023-05-02T02:41:34.765Z,1018.2
2023-05-02T02:42:35.031Z,1018.2
2023-05-02T02:43:34.487Z,1018.2
2023-05-02T02:44:36.124Z,1018.2
2023-05-02T02:45:34.493Z,1018.1
2023-05-02T02:48:35.677Z,1018.2
2023-05-02T02:49:34.973Z,1018.2
2023-05-02T02:52:36.202Z,1018.2
2023-05-02T02:53:34.759Z,1018.2
2023-05-02T02:54:34.855Z,1018.1
2023-05-02T02:55:34.491Z,1018.1
2023-05-02T02:56:34.758Z,1018.2
2023-05-02T02:57:34.503Z,1018.1
2023-05-02T02:58:34.712Z,1018.2
2023-05-02T02:59:35.231Z,1018.2
2023-05-02T03:00:34.534Z,1018.2
2023-05-02T03:01:34.672Z,1018.2
2023-05-02T03:02:34.468Z,1018.2
2023-05-02T03:03:34.654Z,1018.2
2023-05-02T03:04:34.544Z,1018.2
2023-05-02T03:05:35.689Z,1018.2
2023-05-02T03:06:34.863Z,1018.3
2023-05-02T03:07:35.078Z,1018.2
2023-05-02T03:08:34.469Z,1018.2
2023-05-02T03:09:34.411Z,1018.2
2023-05-02T03:10:34.594Z,1018.2
2023-05-02T03:11:34.819Z,1018.2
2023-05-02T03:12:34.405Z,1018.2
2023-05-02T03:13:34.760Z,1018.2
2023-05-02T03:14:34.761Z,1018.2
2023-05-02T03:15:34.773Z,1018.2
2023-05-02T03:16:34.891Z,1018.3
2023-05-02T03:17:35.355Z,1018.2
2023-05-02T03:20:36.878Z,1018.3
2023-05-02T03:26:34.536Z,1018.2
2023-05-02T03:27:35.935Z,1018.2
2023-05-02T03:28:34.653Z,1018.3
2023-05-02T03:29:34.352Z,1018.3
2023-05-02T03:34:34.408Z,1018.3
2023-05-02T03:35:34.431Z,1018.3
2023-05-02T03:36:35.652Z,1018.2
2023-05-02T03:37:35.310Z,1018.3
2023-05-02T03:39:34.584Z,1018.3
2023-05-02T03:40:35.063Z,1018.3
2023-05-02T03:41:34.561Z,1018.4
2023-05-02T03:42:34.453Z,1018.3
2023-05-02T03:43:34.402Z,1018.2
2023-05-02T03:44:34.721Z,1018.3
2023-05-02T03:45:35.322Z,1018.3
2023-05-02T03:46:34.448Z,1018.3
2023-05-02T03:47:34.777Z,1018.3
2023-05-02T03:48:34.738Z,1018.3
2023-05-02T03:49:34.637Z,1018.3
2023-05-02T03:50:37.807Z,1018.3
2023-05-02T03:51:38.050Z,1018.2
2023-05-02T03:52:36.273Z,1018.3
2023-05-02T03:53:40.228Z,1018.3
2023-05-02T03:55:36.761Z,1018.2
2023-05-02T03:56:36.481Z,1018.3
2023-05-02T03:57:36.403Z,1018.3
2023-05-02T03:58:36.110Z,1018.3
2023-05-02T03:59:36.288Z,1018.4
2023-05-02T04:00:36.522Z,1018.4
2023-05-02T04:01:36.584Z,1018.4
2023-05-02T04:02:36.149Z,1018.4
2023-05-02T04:03:36.892Z,1018.3
2023-05-02T04:04:36.958Z,1018.4
2023-05-02T04:05:36.516Z,1018.4
2023-05-02T04:06:36.908Z,1018.4
2023-05-02T04:07:36.346Z,1018.4
2023-05-02T04:08:36.699Z,1018.4
2023-05-02T04:09:53.915Z,1018.5
2023-05-02T04:10:35.960Z,1018.4
2023-05-02T04:11:38.123Z,1018.5
2023-05-02T04:12:36.254Z,1018.4
2023-05-02T04:23:36.318Z,1018.5
2023-05-02T04:24:37.794Z,1018.6
2023-05-02T04:25:36.963Z,1018.5
2023-05-02T04:26:36.255Z,1018.6
2023-05-02T04:27:36.247Z,1018.5
2023-05-02T04:28:36.660Z,1018.6
2023-05-02T04:29:37.610Z,1018.6
2023-05-02T04:30:36.744Z,1018.6
2023-05-02T04:31:36.595Z,1018.5
2023-05-02T04:35:36.452Z,1018.6
2023-05-02T04:37:36.470Z,1018.6
2023-05-02T04:38:36.002Z,1018.6
2023-05-02T04:39:36.643Z,1018.6
2023-05-02T04:40:36.371Z,1018.6
2023-05-02T04:41:36.199Z,1018.6
2023-05-02T04:42:35.927Z,1018.6
2023-05-02T04:43:37.161Z,1018.7
2023-05-02T04:44:37.419Z,1018.7
2023-05-02T04:45:37.309Z,1018.6
2023-05-02T04:46:36.583Z,1018.5
2023-05-02T04:50:36.629Z,1018.5
2023-05-02T04:51:36.670Z,1018.5
2023-05-02T04:52:36.374Z,1018.6
2023-05-02T04:53:37.192Z,1018.5
2023-05-02T04:54:37.207Z,1018.5
2023-05-02T05:52:43.195Z,1018.5
2023-05-02T05:53:43.216Z,1018.8
2023-05-02T05:54:43.275Z,1019.0
2023-05-02T05:55:43.160Z,1018.9
2023-05-02T05:56:43.166Z,1018.9
2023-05-02T05:57:43.213Z,1018.9
2023-05-02T05:58:43.139Z,1018.8
2023-05-02T05:59:43.143Z,1018.9
2023-05-02T06:00:43.153Z,1018.9
2023-05-02T06:02:02.414Z,1018.8
2023-05-02T06:02:43.407Z,1018.9
2023-05-02T06:03:43.260Z,1018.9
2023-05-02T06:04:43.218Z,1018.8
2023-05-02T06:05:43.117Z,1018.9
2023-05-02T06:06:43.198Z,1018.9
2023-05-02T06:07:43.143Z,1018.8
2023-05-02T06:08:43.198Z,1018.9
2023-05-02T06:09:43.149Z,1018.9
2023-05-02T06:10:43.289Z,1018.9
2023-05-02T06:11:43.137Z,1019.0
2023-05-02T06:12:43.128Z,1018.9
2023-05-02T06:14:43.172Z,1019.0
2023-05-02T06:15:43.225Z,1019.1
2023-05-02T06:16:43.128Z,1019.0
2023-05-02T06:17:43.232Z,1019.0
2023-05-02T06:19:43.144Z,1019.0
2023-05-02T06:20:43.170Z,1019.0
2023-05-02T06:21:43.114Z,1019.1
2023-05-02T06:22:43.114Z,1019.1
2023-05-02T06:23:43.157Z,1019.1
2023-05-02T06:24:43.273Z,1019.0
2023-05-02T06:25:43.113Z,1019.1
2023-05-02T06:26:43.103Z,1019.1
2023-05-02T06:27:43.142Z,1019.1
2023-05-02T06:28:43.256Z,1019.1
2023-05-02T06:29:43.141Z,1019.1
2023-05-02T06:30:43.113Z,1019.1
2023-05-02T06:31:43.149Z,1019.1
2023-05-02T06:32:43.166Z,1019.1
2023-05-02T06:33:43.105Z,1019.2
2023-05-02T06:34:43.102Z,1019.1
2023-05-02T06:35:43.209Z,1019.0
2023-05-02T06:36:43.111Z,1019.1
2023-05-02T06:37:43.136Z,1019.0
2023-05-02T06:38:43.074Z,1019.0
2023-05-02T06:39:43.092Z,1019.1
2023-05-02T06:40:43.083Z,1019.1
2023-05-02T06:41:43.121Z,1019.2
2023-05-02T06:42:43.159Z,1019.2
2023-05-02T06:43:43.175Z,1019.2
2023-05-02T06:44:43.077Z,1019.2
2023-05-02T06:45:43.110Z,1019.2
2023-05-02T06:46:43.309Z,1019.3
2023-05-02T06:47:43.104Z,1019.3
2023-05-02T06:48:43.110Z,1019.3
2023-05-02T06:49:43.064Z,1019.4
2023-05-02T06:50:43.075Z,1019.4
2023-05-02T06:51:43.046Z,1019.3
2023-05-02T06:52:43.050Z,1019.3
2023-05-02T06:53:43.106Z,1019.4
2023-05-02T06:54:43.070Z,1019.4
2023-05-02T06:55:43.113Z,1019.3
2023-05-02T06:56:43.075Z,1019.4
2023-05-02T06:57:43.245Z,1019.4
2023-05-02T06:58:43.067Z,1019.4
2023-05-02T06:59:43.353Z,1019.3
2023-05-02T07:00:43.758Z,1019.4
2023-05-02T07:01:43.099Z,1019.3
2023-05-02T07:02:43.163Z,1019.3
2023-05-02T07:03:43.494Z,1019.3
2023-05-02T07:04:43.619Z,1019.4
2023-05-02T07:05:43.289Z,1019.4
2023-05-02T07:21:15.368Z,1018.7
2023-05-02T07:21:43.059Z,1019.6
2023-05-02T07:22:43.248Z,1019.5
2023-05-02T07:23:43.011Z,1019.6
2023-05-02T07:24:43.023Z,1019.6
2023-05-02T07:25:43.017Z,1019.5
2023-05-02T07:26:43.018Z,1019.6
2023-05-02T07:27:43.054Z,1019.5
2023-05-02T07:28:42.991Z,1019.5
2023-05-02T07:29:43.081Z,1019.5
2023-05-02T07:30:43.017Z,1019.6
2023-05-02T07:31:43.067Z,1019.6
2023-05-02T07:32:45.284Z,1019.6
2023-05-02T07:33:43.011Z,1019.6
2023-05-02T07:34:43.046Z,1019.6
2023-05-02T07:35:43.103Z,1019.7
2023-05-02T07:36:43.078Z,1019.7
2023-05-02T07:37:43.093Z,1019.8
2023-05-02T07:38:42.994Z,1019.7
2023-05-02T07:39:43.000Z,1019.7
2023-05-02T07:40:43.013Z,1019.7
2023-05-02T07:41:43.198Z,1019.7
2023-05-02T07:42:43.611Z,1019.7
2023-05-02T07:43:43.172Z,1019.8
2023-05-02T07:44:43.097Z,1019.7
2023-05-02T07:45:43.656Z,1019.7
2023-05-02T07:46:43.307Z,1019.8
2023-05-02T07:47:43.250Z,1019.7
2023-05-02T07:48:43.066Z,1019.8
2023-05-02T07:49:43.213Z,1019.8
2023-05-02T07:50:43.122Z,1019.7
2023-05-02T07:51:43.004Z,1019.8
2023-05-02T07:52:43.171Z,1019.8
2023-05-02T07:53:43.030Z,1019.8
2023-05-02T07:54:43.028Z,1019.9
2023-05-02T07:55:43.017Z,1019.9
2023-05-02T07:56:43.101Z,1019.8
2023-05-02T07:57:42.979Z,1019.9
2023-05-02T07:58:43.613Z,1019.9
2023-05-02T07:59:44.012Z,1019.8
2023-05-02T08:00:43.903Z,1019.8
2023-05-02T08:01:43.030Z,1019.9
2023-05-02T08:02:43.905Z,1019.9
2023-05-02T08:03:43.157Z,1019.8
2023-05-02T08:04:43.294Z,1019.8
2023-05-02T08:05:42.983Z,1019.8
2023-05-02T08:06:43.025Z,1019.9
2023-05-02T08:07:43.219Z,1019.9
2023-05-02T08:08:45.505Z,1019.9
2023-05-02T08:09:43.070Z,1019.9
2023-05-02T08:10:43.019Z,1019.9
2023-05-02T08:11:42.969Z,1019.9
2023-05-02T08:12:43.049Z,1019.9
2023-05-02T08:13:43.191Z,1019.8
2023-05-02T08:14:52.051Z,1019.9
2023-05-02T08:15:43.445Z,1019.9
2023-05-02T08:19:44.338Z,1019.9
2023-05-02T08:20:43.071Z,1019.9
2023-05-02T08:21:42.982Z,1019.9
2023-05-02T08:22:43.314Z,1019.9
2023-05-02T08:23:47.505Z,1019.9
2023-05-02T08:24:42.962Z,1019.9
2023-05-02T08:25:47.108Z,1019.9
2023-05-02T08:26:42.964Z,1019.9
2023-05-02T08:27:42.971Z,1019.9
2023-05-02T08:28:42.919Z,1019.9
2023-05-02T08:29:42.926Z,1019.8
2023-05-02T08:30:42.955Z,1019.9
2023-05-02T08:31:43.383Z,1019.9
2023-05-02T08:32:51.932Z,1019.9
2023-05-02T08:33:42.984Z,1020.0
2023-05-02T08:34:42.935Z,1020.0
2023-05-02T08:35:42.988Z,1020.0
2023-05-02T08:36:43.052Z,1020.0
2023-05-02T08:37:43.192Z,1019.9
2023-05-02T08:38:43.625Z,1019.9
2023-05-02T08:39:43.040Z,1019.9
2023-05-02T08:40:43.447Z,1020.0
2023-05-02T08:41:42.932Z,1019.9
2023-05-02T08:42:42.990Z,1020.0
2023-05-02T08:43:43.445Z,1020.0
2023-05-02T08:44:42.942Z,1020.0
2023-05-02T08:45:43.143Z,1019.9
2023-05-02T08:46:42.949Z,1020.1
2023-05-02T08:47:43.028Z,1020.0
2023-05-02T08:48:42.943Z,1020.0
2023-05-02T08:49:42.985Z,1019.9
2023-05-02T08:50:42.989Z,1020.0
2023-05-02T08:51:42.919Z,1020.0
2023-05-02T08:52:42.903Z,1020.0
2023-05-02T08:55:56.025Z,1019.9
2023-05-02T08:56:55.996Z,1020.1
2023-05-02T08:57:56.057Z,1020.0
2023-05-02T08:58:56.030Z,1020.1
2023-05-02T08:59:55.988Z,1020.0
2023-05-02T09:00:56.278Z,1020.0
2023-05-02T09:01:56.055Z,1020.0
2023-05-02T09:02:56.009Z,1020.0
2023-05-02T09:03:56.068Z,1019.9
2023-05-02T09:04:56.099Z,1020.0
2023-05-02T09:05:56.272Z,1020.0
2023-05-02T09:06:56.026Z,1020.0
2023-05-02T09:07:56.005Z,1020.0
2023-05-02T09:08:56.166Z,1020.0
2023-05-02T09:09:56.003Z,1020.0
2023-05-02T09:10:56.023Z,1020.0
2023-05-02T09:11:56.032Z,1020.0
2023-05-02T09:12:57.065Z,1020.0
2023-05-02T09:13:55.998Z,1020.0
2023-05-02T09:14:55.998Z,1019.9
2023-05-02T09:15:56.015Z,1020.0
2023-05-02T09:16:56.046Z,1020.0
2023-05-02T09:17:56.019Z,1019.9
2023-05-02T09:18:55.960Z,1020.0
2023-05-02T09:19:56.078Z,1020.0
2023-05-02T09:20:55.979Z,1020.0
2023-05-02T09:21:55.996Z,1020.0
2023-05-02T09:22:55.999Z,1019.9
2023-05-02T09:23:55.964Z,1019.9
2023-05-02T09:24:56.005Z,1020.0
2023-05-02T09:25:56.016Z,1020.0
2023-05-02T09:26:55.948Z,1020.0
2023-05-02T09:27:55.955Z,1019.9
2023-05-02T09:28:55.975Z,1020.0
2023-05-02T09:29:55.996Z,1020.0
2023-05-02T09:30:56.217Z,1020.0
2023-05-02T09:31:56.750Z,1020.0
2023-05-02T09:32:56.325Z,1020.1
2023-05-02T09:33:55.984Z,1020.1
2023-05-02T09:34:56.027Z,1020.0
2023-05-02T09:35:56.033Z,1020.1
2023-05-02T09:36:55.969Z,1020.1
2023-05-02T09:37:55.923Z,1020.1
2023-05-02T09:38:55.943Z,1020.1
2023-05-02T09:39:55.980Z,1020.1
2023-05-02T09:40:56.176Z,1020.1
2023-05-02T09:41:56.064Z,1020.1
2023-05-02T09:42:55.941Z,1020.1
2023-05-02T09:43:55.943Z,1020.1
2023-05-02T09:44:55.988Z,1020.1
2023-05-02T09:45:55.960Z,1020.1
2023-05-02T09:46:55.992Z,1020.1
2023-05-02T09:47:55.998Z,1020.0
2023-05-02T09:48:56.086Z,1020.1
2023-05-02T09:49:55.970Z,1020.2
2023-05-02T09:50:55.948Z,1020.1
2023-05-02T09:51:55.917Z,1020.1
2023-05-02T09:52:56.095Z,1020.1
2023-05-02T09:53:55.942Z,1020.1
2023-05-02T09:54:55.946Z,1020.2
2023-05-02T09:55:55.960Z,1020.1
2023-05-02T09:56:55.926Z,1020.1
2023-05-02T09:57:55.924Z,1020.2
2023-05-02T09:58:55.934Z,1020.2
2023-05-02T09:59:56.327Z,1020.2
2023-05-02T10:01:56.196Z,1020.1
2023-05-02T10:02:55.938Z,1020.1
2023-05-02T10:03:56.041Z,1020.2
2023-05-02T10:04:55.939Z,1020.2
2023-05-02T10:05:55.974Z,1020.3
2023-05-02T10:07:55.947Z,1020.3
2023-05-02T10:08:55.972Z,1020.3
2023-05-02T10:10:18.698Z,1020.3
2023-05-02T10:10:55.945Z,1020.3
2023-05-02T10:11:55.930Z,1020.2
2023-05-02T10:12:55.994Z,1020.3
2023-05-02T10:13:55.905Z,1020.3
2023-05-02T10:14:59.827Z,1020.3
2023-05-02T10:15:55.965Z,1020.3
2023-05-02T10:16:55.898Z,1020.3
2023-05-02T10:17:55.961Z,1020.3
2023-05-02T10:18:55.943Z,1020.3
2023-05-02T10:19:55.917Z,1020.4
2023-05-02T10:20:55.935Z,1020.3
2023-05-02T10:21:55.874Z,1020.3
2023-05-02T10:22:55.916Z,1020.4
2023-05-02T10:23:55.980Z,1020.4
2023-05-02T10:24:55.894Z,1020.4
2023-05-02T10:26:02.001Z,1020.4
2023-05-02T10:26:55.886Z,1020.5
2023-05-02T10:27:55.918Z,1020.3
2023-05-02T10:28:55.868Z,1020.4
2023-05-02T10:29:55.950Z,1020.3
2023-05-02T10:30:55.873Z,1020.4
2023-05-02T10:31:56.042Z,1020.5
2023-05-02T10:32:56.021Z,1020.4
2023-05-02T10:33:55.887Z,1020.4
2023-05-02T10:34:55.920Z,1020.4
2023-05-02T10:35:55.912Z,1020.4
2023-05-02T10:36:56.116Z,1020.5
2023-05-02T10:37:56.115Z,1020.4
2023-05-02T10:38:55.948Z,1020.5
2023-05-02T10:39:55.970Z,1020.5
2023-05-02T10:40:55.909Z,1020.4
2023-05-02T10:41:55.879Z,1020.5
2023-05-02T10:42:55.881Z,1020.5
2023-05-02T10:43:55.890Z,1020.5
2023-05-02T10:44:55.881Z,1020.5
2023-05-02T10:45:55.881Z,1020.6
2023-05-02T10:46:55.980Z,1020.6
2023-05-02T10:47:55.943Z,1020.5
2023-05-02T10:48:55.894Z,1020.4
2023-05-02T10:49:55.860Z,1020.5
2023-05-02T10:50:55.931Z,1020.5
2023-05-02T10:51:55.880Z,1020.5
2023-05-02T10:52:55.896Z,1020.5
2023-05-02T10:53:55.869Z,1020.5
2023-05-02T10:54:55.847Z,1020.5
2023-05-02T10:55:55.821Z,1020.5
2023-05-02T10:56:55.835Z,1020.5
2023-05-02T10:57:55.855Z,1020.5
2023-05-02T10:58:55.985Z,1020.5
2023-05-02T10:59:55.851Z,1020.5
2023-05-02T11:00:55.923Z,1020.6
2023-05-02T11:01:55.884Z,1020.6
2023-05-02T11:02:55.968Z,1020.6
2023-05-02T11:03:55.916Z,1020.6
2023-05-02T11:04:55.848Z,1020.5
2023-05-02T11:05:55.889Z,1020.6
2023-05-02T11:06:55.854Z,1020.6
2023-05-02T11:07:55.867Z,1020.6
2023-05-02T11:08:55.942Z,1020.6
2023-05-02T11:09:55.941Z,1020.7
2023-05-02T11:10:55.872Z,1020.6
2023-05-02T11:11:55.905Z,1020.6
2023-05-02T11:12:55.843Z,1020.6
2023-05-02T11:13:55.845Z,1020.6
2023-05-02T11:14:55.908Z,1020.6
2023-05-02T11:15:55.801Z,1020.7
2023-05-02T11:16:55.900Z,1020.6
2023-05-02T11:17:56.104Z,1020.8
2023-05-02T11:18:55.835Z,1020.8
2023-05-02T11:19:55.897Z,1020.8
2023-05-02T11:20:55.973Z,1020.8
2023-05-02T11:21:55.841Z,1020.8
2023-05-02T11:22:55.872Z,1020.9
2023-05-02T11:23:55.869Z,1020.8
2023-05-02T11:24:55.809Z,1020.8
2023-05-02T11:25:55.818Z,1020.8
2023-05-02T11:26:55.811Z,1020.9
2023-05-02T11:27:56.198Z,1020.8
2023-05-02T11:28:55.839Z,1020.9
2023-05-02T11:29:55.804Z,1020.8
2023-05-02T11:30:56.703Z,1020.8
2023-05-02T11:31:56.023Z,1020.8
2023-05-02T11:32:55.853Z,1020.8
2023-05-02T11:33:56.044Z,1020.7
2023-05-02T11:34:55.778Z,1020.8
2023-05-02T11:35:55.881Z,1020.8
2023-05-02T11:36:55.806Z,1020.7
2023-05-02T11:37:55.784Z,1020.9
2023-05-02T11:38:55.769Z,1020.8
2023-05-02T11:39:55.874Z,1020.8
2023-05-02T11:40:55.851Z,1020.8
2023-05-02T11:41:55.775Z,1020.9
2023-05-02T11:42:55.941Z,1020.8
2023-05-02T11:43:55.803Z,1020.8
2023-05-02T11:45:55.866Z,1020.8
2023-05-02T11:46:55.772Z,1020.8
2023-05-02T11:47:55.817Z,1020.8
2023-05-02T11:48:55.777Z,1020.8
2023-05-02T11:49:55.843Z,1020.8
2023-05-02T11:50:55.988Z,1020.8
2023-05-02T11:51:56.258Z,1020.9
2023-05-02T11:52:55.808Z,1020.9
2023-05-02T11:53:55.918Z,1020.9
2023-05-02T11:54:55.798Z,1020.9
2023-05-02T11:55:55.834Z,1020.8
2023-05-02T11:56:55.780Z,1020.9
2023-05-02T11:57:55.745Z,1020.9
2023-05-02T12:01:06.304Z,1021.0
2023-05-02T12:01:55.815Z,1020.9
2023-05-02T12:02:56.199Z,1021.1
2023-05-02T12:03:55.799Z,1021.0
2023-05-02T12:04:55.961Z,1021.0
2023-05-02T12:05:55.841Z,1021.0
2023-05-02T12:06:55.891Z,1021.1
2023-05-02T12:07:56.068Z,1021.0
2023-05-02T12:08:55.820Z,1021.1
2023-05-02T12:09:55.841Z,1021.1
2023-05-02T12:10:55.758Z,1021.0
2023-05-02T12:11:55.818Z,1021.1
2023-05-02T12:12:55.743Z,1021.1
2023-05-02T12:13:55.744Z,1021.0
2023-05-02T12:14:55.765Z,1021.1
2023-05-02T12:15:56.096Z,1021.1
2023-05-02T12:16:55.768Z,1021.2
2023-05-02T12:17:55.763Z,1021.1
2023-05-02T12:18:55.918Z,1021.2
2023-05-02T12:19:55.764Z,1021.1
2023-05-02T12:20:56.206Z,1021.1
2023-05-02T12:21:55.787Z,1021.1
2023-05-02T12:22:55.772Z,1021.1
2023-05-02T12:23:55.724Z,1021.2
2023-05-02T12:24:55.771Z,1021.1
2023-05-02T12:25:55.749Z,1021.1
2023-05-02T12:26:55.783Z,1021.1
2023-05-02T12:27:55.752Z,1021.2
2023-05-02T12:28:55.847Z,1021.2
2023-05-02T12:29:55.736Z,1021.2
2023-05-02T12:30:55.826Z,1021.1
2023-05-02T12:31:55.763Z,1021.2
2023-05-02T12:32:55.793Z,1021.1
2023-05-02T12:33:55.710Z,1021.2
2023-05-02T12:34:55.762Z,1021.1
2023-05-02T12:35:55.773Z,1021.2
2023-05-02T12:36:55.782Z,1021.1
2023-05-02T12:37:55.918Z,1021.2
2023-05-02T12:38:55.751Z,1021.1
2023-05-02T12:39:55.798Z,1021.2
2023-05-02T12:40:55.741Z,1021.2
2023-05-02T12:41:55.698Z,1021.2
2023-05-02T12:42:55.726Z,1021.2
2023-05-02T12:43:55.772Z,1021.1
2023-05-02T12:44:55.710Z,1021.2
2023-05-02T12:45:55.749Z,1021.1
2023-05-02T12:46:55.717Z,1021.1
2023-05-02T12:47:55.804Z,1021.2
2023-05-02T12:48:55.849Z,1021.2
2023-05-02T12:49:55.767Z,1021.1
2023-05-02T12:50:55.788Z,1021.2
2023-05-02T12:51:55.715Z,1021.2
2023-05-02T12:52:55.695Z,1021.2
2023-05-02T12:53:55.718Z,1021.3
2023-05-02T12:54:55.839Z,1021.2
2023-05-02T12:55:55.679Z,1021.3
2023-05-02T12:56:55.737Z,1021.3
2023-05-02T12:57:55.713Z,1021.3
2023-05-02T12:58:55.705Z,1021.3
2023-05-02T12:59:55.878Z,1021.3
2023-05-02T13:00:55.783Z,1021.3
2023-05-02T13:01:55.697Z,1021.3
2023-05-02T13:02:55.825Z,1021.3
2023-05-02T13:03:55.760Z,1021.3
2023-05-02T13:04:55.681Z,1021.3
2023-05-02T13:05:55.696Z,1021.3
2023-05-02T13:08:56.224Z,1021.4
2023-05-02T13:09:55.690Z,1021.3
2023-05-02T13:10:55.629Z,1021.3
2023-05-02T13:11:55.663Z,1021.3
2023-05-02T13:12:55.747Z,1021.3
2023-05-02T13:13:55.715Z,1021.3
2023-05-02T13:14:55.705Z,1021.2
2023-05-02T13:15:55.712Z,1021.4
2023-05-02T13:16:55.799Z,1021.4
2023-05-02T13:17:55.762Z,1021.4
2023-05-02T13:18:55.879Z,1021.4
2023-05-02T13:20:01.637Z,1021.5
2023-05-02T13:20:55.736Z,1021.3
2023-05-02T13:21:55.846Z,1021.4
2023-05-02T13:22:55.667Z,1021.4
2023-05-02T13:23:55.667Z,1021.4
2023-05-02T13:24:55.665Z,1021.3
2023-05-02T13:25:55.673Z,1021.3
2023-05-02T13:26:55.669Z,1021.4
2023-05-02T13:27:55.621Z,1021.4
2023-05-02T13:28:55.649Z,1021.4
2023-05-02T13:29:55.667Z,1021.4
2023-05-02T13:30:55.795Z,1021.4
2023-05-02T13:31:55.719Z,1021.3
2023-05-02T13:32:55.846Z,1021.4
2023-05-02T13:33:55.660Z,1021.3
2023-05-02T13:34:55.668Z,1021.3
2023-05-02T13:35:55.716Z,1021.4
2023-05-02T13:36:55.658Z,1021.3
2023-05-02T13:37:55.633Z,1021.4
2023-05-02T13:38:55.633Z,1021.4
2023-05-02T13:39:56.833Z,1021.4
2023-05-02T13:40:55.658Z,1021.4
2023-05-02T13:41:55.595Z,1021.4
2023-05-02T13:42:55.628Z,1021.4
2023-05-02T13:43:55.685Z,1021.4
2023-05-02T13:44:55.823Z,1021.4
2023-05-02T13:45:55.652Z,1021.4
2023-05-02T13:46:55.637Z,1021.4
2023-05-02T13:47:55.673Z,1021.4
2023-05-02T13:48:55.716Z,1021.3
2023-05-02T13:49:55.635Z,1021.3
2023-05-02T13:50:55.611Z,1021.4
2023-05-02T13:51:55.603Z,1021.4
2023-05-02T13:52:55.619Z,1021.4
2023-05-02T13:54:04.077Z,1021.4
2023-05-02T13:54:55.771Z,1021.4
2023-05-02T13:55:55.776Z,1021.4
2023-05-02T13:56:55.583Z,1021.4
2023-05-02T13:57:55.603Z,1021.4
2023-05-02T13:58:55.629Z,1021.4
2023-05-02T13:59:55.704Z,1021.4
2023-05-02T14:00:55.623Z,1021.4
2023-05-02T14:01:55.690Z,1021.4
2023-05-02T14:02:55.776Z,1021.5
2023-05-02T14:03:55.737Z,1021.5
2023-05-02T14:04:55.711Z,1021.4
2023-05-02T14:05:55.617Z,1021.4
2023-05-02T14:06:55.717Z,1021.5
2023-05-02T14:07:55.682Z,1021.4
2023-05-02T14:08:55.582Z,1021.5
2023-05-02T14:09:55.613Z,1021.5
2023-05-02T14:10:55.676Z,1021.5
2023-05-02T14:11:55.569Z,1021.5
2023-05-02T14:12:55.611Z,1021.6
2023-05-02T14:13:55.656Z,1021.6
2023-05-02T14:14:55.606Z,1021.6
2023-05-02T14:15:55.870Z,1021.6
2023-05-02T14:16:55.613Z,1021.6
2023-05-02T14:17:55.672Z,1021.5
2023-05-02T14:18:55.597Z,1021.5
2023-05-02T14:19:55.599Z,1021.6
2023-05-02T14:20:55.590Z,1021.6
2023-05-02T14:21:55.636Z,1021.5
2023-05-02T14:22:57.297Z,1021.6
2023-05-02T14:23:55.634Z,1021.6
2023-05-02T14:24:55.578Z,1021.6
2023-05-02T14:25:55.581Z,1021.5
2023-05-02T14:26:55.700Z,1021.5
2023-05-02T14:27:55.590Z,1021.5
2023-05-02T14:28:55.762Z,1021.5
2023-05-02T14:29:55.608Z,1021.5
2023-05-02T14:30:55.589Z,1021.5
2023-05-02T14:31:55.874Z,1021.6
2023-05-02T14:32:55.683Z,1021.6
2023-05-02T14:33:55.598Z,1021.6
2023-05-02T14:34:55.616Z,1021.6
2023-05-02T14:35:55.618Z,1021.5
2023-05-02T14:36:55.605Z,1021.6
2023-05-02T14:37:55.571Z,1021.6
2023-05-02T14:38:55.520Z,1021.6
2023-05-02T14:39:55.549Z,1021.6
2023-05-02T14:40:55.552Z,1021.6
2023-05-02T14:41:55.586Z,1021.6
2023-05-02T14:42:55.587Z,1021.6
2023-05-02T14:43:55.566Z,1021.6
2023-05-02T14:44:56.867Z,1021.5
2023-05-02T14:45:55.726Z,1021.6
2023-05-02T14:46:55.689Z,1021.7
2023-05-02T14:47:55.690Z,1021.7
2023-05-02T14:48:55.584Z,1021.7
2023-05-02T14:49:55.588Z,1021.6
2023-05-02T14:50:55.949Z,1021.7
2023-05-02T14:51:56.374Z,1021.7
2023-05-02T14:52:55.659Z,1021.7
2023-05-02T14:53:55.584Z,1021.8
2023-05-02T14:54:55.580Z,1021.7
2023-05-02T14:55:55.530Z,1021.8
2023-05-02T14:56:55.528Z,1021.8
2023-05-02T14:57:56.147Z,1021.8
2023-05-02T14:58:56.714Z,1021.8
2023-05-02T14:59:55.622Z,1021.7
2023-05-02T15:00:55.517Z,1021.7
2023-05-02T15:04:06.156Z,1021.8
2023-05-02T15:04:55.535Z,1021.8
2023-05-02T15:05:55.597Z,1021.8
2023-05-02T15:06:55.794Z,1021.8
2023-05-02T15:07:55.519Z,1021.8
2023-05-02T15:08:55.495Z,1021.8
2023-05-02T15:09:55.671Z,1021.9
2023-05-02T15:10:55.613Z,1021.8
2023-05-02T15:11:55.517Z,1022.0
2023-05-02T15:12:55.506Z,1021.9
2023-05-02T15:13:57.469Z,1021.9
2023-05-02T15:14:55.585Z,1021.9
2023-05-02T15:15:55.568Z,1021.9
2023-05-02T15:16:55.538Z,1021.9
2023-05-02T15:17:55.498Z,1021.9
2023-05-02T15:18:55.494Z,1022.0
2023-05-02T15:19:57.810Z,1022.0